Startpagina
METAR-TAF:

METAR-TAF

Vliegvelden :

Luchthaven Helsinki-Vantaa

Helsinki, Finland

breedte: 60-19N, lengte: 024-58E, hoogte: 51 m

Actueel weer

Dit bericht is 16 minuten geleden gemaakt, om 10:50 UTC
Wind 4 kt uit het noordnoordoosten, variërend tussen het noorden en het oostnoordoosten
Temperatuur 0°C
Vochtigheid 69%
Druk 1040 hPa
Zicht 10 km of meer
Gebroken wolken op 2200 ft

METAR: EFHK 191050Z 03004KT 350V060 9999 BKN022 M00/M05 Q1040 NOSIG

Tijdstip: 13:06 (11:06 UTC)

Verwachting

Dit bericht is 2 uur en het 37 minuten geleden gemaakt, om 08:29 UTC
Verwachting geldig van 19 om 09 UTC tot 20 om 09 UTC
Wind 5 kt uit het noordoosten
Zicht 10 km of meer
Gebroken wolken op 2000 ft

TAF: EFHK 190829Z 1909/2009 04005KT 9999 BKN020

Waarnemingen en weersverwachtingen van meer dan 4000 vliegvelden (METAR en TAF).

De beschikbare stations zijn de gele en rode punten op de kaart.

Ga met uw muis naar het station om de naam te zien.

Klik dan om waarnemingen en weersverwachtingen te zien.

kaart wijzigen: klik op de groene knoppen met een zwart kruis om in te zoomen, op de groene knop met een streepje om uit te zoomen of op de groene pijlen voor aangrenzende kaarten.


METAR-TAF: